Ryl'sk, Russia
Current Conditions -  °F | °C
As of 10:00 PM on Thursday 27 Nov 2014 (Local Time) from UUOK Reporting Station
Broken Clouds Broken Clouds  
Wind Chill: 13°   Ceiling: 2100
Heat Index: 21°   Visibility: 6mi
Dew Point: 12°   Wind: 7mph
Humidity: 68%   Direction: 90°E
Pressure: 30.42"   Gusts: NA
Location:  51.36°N, 34.4°E
Report Text: UUOK 271900Z 09003MPS 9999 BKN021 M06/M11 Q1030 NOSIG RMK12CLRD70
Loading
Personal Weather Stations






























Interactive Weather Map New forecast layout! Learn more

10-Day Weather Forecast

Advertisements
Track Severe Weather on mobile